sensor_id;sensor_type;location;lat;lon;timestamp;temperature;humidity
70170;DHT22;57543;45.442;9.212;2023-01-08T00:00:51;9.46;87.73
70170;DHT22;57543;45.442;9.212;2023-01-08T00:03:54;9.34;88.04
70170;DHT22;57543;45.442;9.212;2023-01-08T00:06:58;9.45;88.16
70170;DHT22;57543;45.442;9.212;2023-01-08T00:10:01;9.53;87.97
70170;DHT22;57543;45.442;9.212;2023-01-08T00:13:05;9.58;87.62
70170;DHT22;57543;45.442;9.212;2023-01-08T00:16:12;9.55;87.62
70170;DHT22;57543;45.442;9.212;2023-01-08T00:19:18;9.49;87.68
70170;DHT22;57543;45.442;9.212;2023-01-08T00:22:22;9.49;87.69
70170;DHT22;57543;45.442;9.212;2023-01-08T00:25:25;9.51;87.68
70170;DHT22;57543;45.442;9.212;2023-01-08T00:28:29;9.48;87.50
70170;DHT22;57543;45.442;9.212;2023-01-08T00:31:33;9.45;87.76
70170;DHT22;57543;45.442;9.212;2023-01-08T00:34:37;9.41;87.97
70170;DHT22;57543;45.442;9.212;2023-01-08T00:37:43;9.41;87.95
70170;DHT22;57543;45.442;9.212;2023-01-08T00:40:47;9.42;87.90
70170;DHT22;57543;45.442;9.212;2023-01-08T00:43:51;9.41;87.95
70170;DHT22;57543;45.442;9.212;2023-01-08T00:46:55;9.52;87.82
70170;DHT22;57543;45.442;9.212;2023-01-08T00:49:58;9.49;87.55
70170;DHT22;57543;45.442;9.212;2023-01-08T00:53:02;9.34;87.70
70170;DHT22;57543;45.442;9.212;2023-01-08T00:56:11;9.35;88.19
70170;DHT22;57543;45.442;9.212;2023-01-08T00:59:15;9.36;88.02
70170;DHT22;57543;45.442;9.212;2023-01-08T01:02:18;9.45;87.98
70170;DHT22;57543;45.442;9.212;2023-01-08T01:05:22;9.51;87.91
70170;DHT22;57543;45.442;9.212;2023-01-08T01:08:26;9.53;87.76
70170;DHT22;57543;45.442;9.212;2023-01-08T01:11:29;9.51;87.88
70170;DHT22;57543;45.442;9.212;2023-01-08T01:14:33;9.55;87.85
70170;DHT22;57543;45.442;9.212;2023-01-08T01:17:38;9.56;87.63
70170;DHT22;57543;45.442;9.212;2023-01-08T01:20:42;9.56;87.52
70170;DHT22;57543;45.442;9.212;2023-01-08T01:23:46;9.56;87.44
70170;DHT22;57543;45.442;9.212;2023-01-08T01:26:52;9.52;87.24
70170;DHT22;57543;45.442;9.212;2023-01-08T01:29:58;9.59;87.30
70170;DHT22;57543;45.442;9.212;2023-01-08T01:33:02;9.51;87.23
70170;DHT22;57543;45.442;9.212;2023-01-08T01:36:08;9.53;87.30
70170;DHT22;57543;45.442;9.212;2023-01-08T01:39:12;9.46;87.35
70170;DHT22;57543;45.442;9.212;2023-01-08T01:42:17;9.39;87.68
70170;DHT22;57543;45.442;9.212;2023-01-08T01:45:42;9.49;87.86
70170;DHT22;57543;45.442;9.212;2023-01-08T01:48:49;9.41;87.97
70170;DHT22;57543;45.442;9.212;2023-01-08T01:51:58;9.23;88.54
70170;DHT22;57543;45.442;9.212;2023-01-08T01:55:06;9.17;88.45
70170;DHT22;57543;45.442;9.212;2023-01-08T01:58:16;9.24;88.16
70170;DHT22;57543;45.442;9.212;2023-01-08T02:01:23;9.36;88.03
70170;DHT22;57543;45.442;9.212;2023-01-08T02:04:27;9.43;87.79
70170;DHT22;57543;45.442;9.212;2023-01-08T02:07:59;9.45;87.58
70170;DHT22;57543;45.442;9.212;2023-01-08T02:11:16;9.51;87.55
70170;DHT22;57543;45.442;9.212;2023-01-08T02:14:32;9.55;87.53
70170;DHT22;57543;45.442;9.212;2023-01-08T02:17:55;9.55;87.03
70170;DHT22;57543;45.442;9.212;2023-01-08T02:24:16;9.32;87.48
70170;DHT22;57543;45.442;9.212;2023-01-08T02:27:24;9.34;87.64
70170;DHT22;57543;45.442;9.212;2023-01-08T02:30:30;9.34;87.58
70170;DHT22;57543;45.442;9.212;2023-01-08T02:33:34;9.43;87.55
70170;DHT22;57543;45.442;9.212;2023-01-08T02:36:49;9.49;87.36
70170;DHT22;57543;45.442;9.212;2023-01-08T02:43:13;9.41;87.73
70170;DHT22;57543;45.442;9.212;2023-01-08T02:46:25;9.41;87.63
70170;DHT22;57543;45.442;9.212;2023-01-08T02:49:31;9.39;88.10
70170;DHT22;57543;45.442;9.212;2023-01-08T02:52:43;9.31;88.16
70170;DHT22;57543;45.442;9.212;2023-01-08T02:55:54;9.28;88.34
70170;DHT22;57543;45.442;9.212;2023-01-08T02:59:04;9.36;88.20
70170;DHT22;57543;45.442;9.212;2023-01-08T03:02:09;9.43;87.82
70170;DHT22;57543;45.442;9.212;2023-01-08T03:05:20;9.41;87.64
70170;DHT22;57543;45.442;9.212;2023-01-08T03:08:29;9.48;87.42
70170;DHT22;57543;45.442;9.212;2023-01-08T03:11:44;9.53;87.25
70170;DHT22;57543;45.442;9.212;2023-01-08T03:18:00;9.58;87.02
70170;DHT22;57543;45.442;9.212;2023-01-08T03:21:08;9.63;86.96
70170;DHT22;57543;45.442;9.212;2023-01-08T03:24:14;9.60;86.90
70170;DHT22;57543;45.442;9.212;2023-01-08T03:27:23;9.63;86.84
70170;DHT22;57543;45.442;9.212;2023-01-08T03:30:29;9.65;86.81
70170;DHT22;57543;45.442;9.212;2023-01-08T03:33:34;9.58;86.51
70170;DHT22;57543;45.442;9.212;2023-01-08T03:36:40;9.51;86.85
70170;DHT22;57543;45.442;9.212;2023-01-08T03:39:59;9.42;87.08
70170;DHT22;57543;45.442;9.212;2023-01-08T03:43:04;9.41;87.14
70170;DHT22;57543;45.442;9.212;2023-01-08T03:46:14;9.31;87.36
70170;DHT22;57543;45.442;9.212;2023-01-08T03:49:21;9.25;87.53
70170;DHT22;57543;45.442;9.212;2023-01-08T03:52:27;9.18;87.74
70170;DHT22;57543;45.442;9.212;2023-01-08T03:55:31;9.30;87.59
70170;DHT22;57543;45.442;9.212;2023-01-08T03:58:35;9.36;87.39
70170;DHT22;57543;45.442;9.212;2023-01-08T04:01:39;9.27;87.57
70170;DHT22;57543;45.442;9.212;2023-01-08T04:04:42;9.18;88.12
70170;DHT22;57543;45.442;9.212;2023-01-08T04:07:46;9.21;88.32
70170;DHT22;57543;45.442;9.212;2023-01-08T04:10:49;9.20;88.42
70170;DHT22;57543;45.442;9.212;2023-01-08T04:13:53;9.23;88.29
70170;DHT22;57543;45.442;9.212;2023-01-08T04:16:59;9.25;88.18
70170;DHT22;57543;45.442;9.212;2023-01-08T04:20:04;9.34;87.89
70170;DHT22;57543;45.442;9.212;2023-01-08T04:23:07;9.39;87.60
70170;DHT22;57543;45.442;9.212;2023-01-08T04:26:11;9.38;87.26
70170;DHT22;57543;45.442;9.212;2023-01-08T04:29:14;9.39;87.34
70170;DHT22;57543;45.442;9.212;2023-01-08T04:32:18;9.43;87.30
70170;DHT22;57543;45.442;9.212;2023-01-08T04:35:25;9.39;87.17
70170;DHT22;57543;45.442;9.212;2023-01-08T04:38:31;9.43;87.13
70170;DHT22;57543;45.442;9.212;2023-01-08T04:41:34;9.43;87.10
70170;DHT22;57543;45.442;9.212;2023-01-08T04:44:38;9.48;87.06
70170;DHT22;57543;45.442;9.212;2023-01-08T04:47:41;9.39;86.95
70170;DHT22;57543;45.442;9.212;2023-01-08T04:50:45;9.39;87.10
70170;DHT22;57543;45.442;9.212;2023-01-08T04:53:49;9.49;86.86
70170;DHT22;57543;45.442;9.212;2023-01-08T04:56:53;9.45;86.88
70170;DHT22;57543;45.442;9.212;2023-01-08T04:59:56;9.55;86.62
70170;DHT22;57543;45.442;9.212;2023-01-08T05:03:00;9.55;86.66
70170;DHT22;57543;45.442;9.212;2023-01-08T05:06:05;9.46;86.59
70170;DHT22;57543;45.442;9.212;2023-01-08T05:09:08;9.52;86.61
70170;DHT22;57543;45.442;9.212;2023-01-08T05:12:17;9.52;86.73
70170;DHT22;57543;45.442;9.212;2023-01-08T05:15:21;9.52;86.68
70170;DHT22;57543;45.442;9.212;2023-01-08T05:18:29;9.51;86.71
70170;DHT22;57543;45.442;9.212;2023-01-08T05:21:33;9.56;86.68
70170;DHT22;57543;45.442;9.212;2023-01-08T05:24:37;9.52;86.79
70170;DHT22;57543;45.442;9.212;2023-01-08T05:27:40;9.53;86.91
70170;DHT22;57543;45.442;9.212;2023-01-08T05:30:48;9.51;86.97
70170;DHT22;57543;45.442;9.212;2023-01-08T05:33:52;9.52;86.84
70170;DHT22;57543;45.442;9.212;2023-01-08T05:36:56;9.39;86.88
70170;DHT22;57543;45.442;9.212;2023-01-08T05:39:59;9.46;87.01
70170;DHT22;57543;45.442;9.212;2023-01-08T05:43:03;9.52;86.76
70170;DHT22;57543;45.442;9.212;2023-01-08T05:46:08;9.52;86.68
70170;DHT22;57543;45.442;9.212;2023-01-08T05:49:11;9.48;86.77
70170;DHT22;57543;45.442;9.212;2023-01-08T05:52:15;9.42;87.03
70170;DHT22;57543;45.442;9.212;2023-01-08T05:55:19;9.32;87.39
70170;DHT22;57543;45.442;9.212;2023-01-08T05:58:23;9.18;88.44
70170;DHT22;57543;45.442;9.212;2023-01-08T06:01:27;9.23;88.20
70170;DHT22;57543;45.442;9.212;2023-01-08T06:04:31;9.34;87.71
70170;DHT22;57543;45.442;9.212;2023-01-08T06:07:34;9.36;87.38
70170;DHT22;57543;45.442;9.212;2023-01-08T06:10:38;9.42;87.16
70170;DHT22;57543;45.442;9.212;2023-01-08T06:13:43;9.36;86.82
70170;DHT22;57543;45.442;9.212;2023-01-08T06:16:48;9.28;86.93
70170;DHT22;57543;45.442;9.212;2023-01-08T06:19:52;9.31;86.95
70170;DHT22;57543;45.442;9.212;2023-01-08T06:22:55;9.30;87.08
70170;DHT22;57543;45.442;9.212;2023-01-08T06:26:00;9.31;87.01
70170;DHT22;57543;45.442;9.212;2023-01-08T06:29:04;9.30;86.92
70170;DHT22;57543;45.442;9.212;2023-01-08T06:32:07;9.31;86.85
70170;DHT22;57543;45.442;9.212;2023-01-08T06:35:10;9.36;86.88
70170;DHT22;57543;45.442;9.212;2023-01-08T06:38:13;9.32;86.75
70170;DHT22;57543;45.442;9.212;2023-01-08T06:41:17;9.23;87.03
70170;DHT22;57543;45.442;9.212;2023-01-08T06:44:21;9.25;87.14
70170;DHT22;57543;45.442;9.212;2023-01-08T06:47:26;9.20;87.42
70170;DHT22;57543;45.442;9.212;2023-01-08T06:50:30;9.17;87.70
70170;DHT22;57543;45.442;9.212;2023-01-08T06:53:34;9.08;88.08
70170;DHT22;57543;45.442;9.212;2023-01-08T06:56:38;9.03;88.33
70170;DHT22;57543;45.442;9.212;2023-01-08T06:59:42;8.91;88.44
70170;DHT22;57543;45.442;9.212;2023-01-08T07:02:45;9.04;88.29
70170;DHT22;57543;45.442;9.212;2023-01-08T07:05:51;9.10;88.13
70170;DHT22;57543;45.442;9.212;2023-01-08T07:08:56;9.07;87.73
70170;DHT22;57543;45.442;9.212;2023-01-08T07:12:00;8.99;88.46
70170;DHT22;57543;45.442;9.212;2023-01-08T07:15:04;9.14;88.20
70170;DHT22;57543;45.442;9.212;2023-01-08T07:18:09;9.10;88.31
70170;DHT22;57543;45.442;9.212;2023-01-08T07:21:13;9.23;88.16
70170;DHT22;57543;45.442;9.212;2023-01-08T07:24:17;9.30;87.91
70170;DHT22;57543;45.442;9.212;2023-01-08T07:27:21;9.24;87.61
70170;DHT22;57543;45.442;9.212;2023-01-08T07:30:24;9.28;87.41
70170;DHT22;57543;45.442;9.212;2023-01-08T07:33:28;9.36;87.18
70170;DHT22;57543;45.442;9.212;2023-01-08T07:36:32;9.38;86.97
70170;DHT22;57543;45.442;9.212;2023-01-08T07:39:35;9.41;86.86
70170;DHT22;57543;45.442;9.212;2023-01-08T07:42:39;9.48;86.72
70170;DHT22;57543;45.442;9.212;2023-01-08T07:45:43;9.48;86.38
70170;DHT22;57543;45.442;9.212;2023-01-08T07:48:49;9.30;86.54
70170;DHT22;57543;45.442;9.212;2023-01-08T07:51:55;9.36;86.65
70170;DHT22;57543;45.442;9.212;2023-01-08T07:54:58;9.43;86.58
70170;DHT22;57543;45.442;9.212;2023-01-08T07:58:06;9.38;86.44
70170;DHT22;57543;45.442;9.212;2023-01-08T08:01:10;9.27;86.68
70170;DHT22;57543;45.442;9.212;2023-01-08T08:04:14;9.28;86.85
70170;DHT22;57543;45.442;9.212;2023-01-08T08:07:18;9.36;86.99
70170;DHT22;57543;45.442;9.212;2023-01-08T08:10:22;9.20;87.26
70170;DHT22;57543;45.442;9.212;2023-01-08T08:13:25;9.10;87.34
70170;DHT22;57543;45.442;9.212;2023-01-08T08:16:32;9.01;87.54
70170;DHT22;57543;45.442;9.212;2023-01-08T08:19:35;9.08;87.44
70170;DHT22;57543;45.442;9.212;2023-01-08T08:22:40;9.13;87.46
70170;DHT22;57543;45.442;9.212;2023-01-08T08:25:44;9.25;87.25
70170;DHT22;57543;45.442;9.212;2023-01-08T08:28:48;9.25;87.20
70170;DHT22;57543;45.442;9.212;2023-01-08T08:31:51;9.11;87.20
70170;DHT22;57543;45.442;9.212;2023-01-08T08:34:55;9.17;86.93
70170;DHT22;57543;45.442;9.212;2023-01-08T08:37:59;9.07;87.30
70170;DHT22;57543;45.442;9.212;2023-01-08T08:41:02;9.10;87.18
70170;DHT22;57543;45.442;9.212;2023-01-08T08:44:07;9.01;87.52
70170;DHT22;57543;45.442;9.212;2023-01-08T08:47:11;8.83;88.32
70170;DHT22;57543;45.442;9.212;2023-01-08T08:50:14;8.77;88.75
70170;DHT22;57543;45.442;9.212;2023-01-08T08:53:18;8.77;88.72
70170;DHT22;57543;45.442;9.212;2023-01-08T08:56:22;8.69;89.21
70170;DHT22;57543;45.442;9.212;2023-01-08T08:59:25;8.76;89.27
70170;DHT22;57543;45.442;9.212;2023-01-08T09:02:29;8.99;88.97
70170;DHT22;57543;45.442;9.212;2023-01-08T09:05:35;8.96;88.48
70170;DHT22;57543;45.442;9.212;2023-01-08T09:08:39;8.97;88.48
70170;DHT22;57543;45.442;9.212;2023-01-08T09:11:42;9.01;88.58
70170;DHT22;57543;45.442;9.212;2023-01-08T09:14:46;9.13;88.36
70170;DHT22;57543;45.442;9.212;2023-01-08T09:17:54;9.01;88.41
70170;DHT22;57543;45.442;9.212;2023-01-08T09:21:03;9.00;87.99
70170;DHT22;57543;45.442;9.212;2023-01-08T09:24:07;9.01;88.19
70170;DHT22;57543;45.442;9.212;2023-01-08T09:27:12;9.00;88.58
70170;DHT22;57543;45.442;9.212;2023-01-08T09:30:16;9.15;88.40
70170;DHT22;57543;45.442;9.212;2023-01-08T09:33:20;9.23;88.11
70170;DHT22;57543;45.442;9.212;2023-01-08T09:36:26;9.31;88.17
70170;DHT22;57543;45.442;9.212;2023-01-08T09:39:30;9.42;87.98
70170;DHT22;57543;45.442;9.212;2023-01-08T09:42:34;9.42;87.85
70170;DHT22;57543;45.442;9.212;2023-01-08T09:45:38;9.49;87.64
70170;DHT22;57543;45.442;9.212;2023-01-08T09:48:42;9.55;87.57
70170;DHT22;57543;45.442;9.212;2023-01-08T09:51:46;9.53;87.28
70170;DHT22;57543;45.442;9.212;2023-01-08T09:54:50;9.58;87.28
70170;DHT22;57543;45.442;9.212;2023-01-08T09:57:53;9.58;87.27
70170;DHT22;57543;45.442;9.212;2023-01-08T10:00:59;9.53;86.73
70170;DHT22;57543;45.442;9.212;2023-01-08T10:04:14;9.49;86.81
70170;DHT22;57543;45.442;9.212;2023-01-08T10:07:21;9.51;86.92
70170;DHT22;57543;45.442;9.212;2023-01-08T10:10:27;9.55;86.99
70170;DHT22;57543;45.442;9.212;2023-01-08T10:13:34;9.60;86.95
70170;DHT22;57543;45.442;9.212;2023-01-08T10:16:40;9.58;87.08
70170;DHT22;57543;45.442;9.212;2023-01-08T10:19:44;9.51;87.08
70170;DHT22;57543;45.442;9.212;2023-01-08T10:22:48;9.53;87.08
70170;DHT22;57543;45.442;9.212;2023-01-08T10:26:00;9.59;86.99
70170;DHT22;57543;45.442;9.212;2023-01-08T10:29:15;9.59;86.90
70170;DHT22;57543;45.442;9.212;2023-01-08T10:32:31;9.58;86.78
70170;DHT22;57543;45.442;9.212;2023-01-08T10:35:38;9.59;86.88
70170;DHT22;57543;45.442;9.212;2023-01-08T10:38:53;9.52;86.47
70170;DHT22;57543;45.442;9.212;2023-01-08T10:42:03;9.49;86.35
70170;DHT22;57543;45.442;9.212;2023-01-08T10:45:21;9.45;86.64
70170;DHT22;57543;45.442;9.212;2023-01-08T10:48:34;9.43;86.86
70170;DHT22;57543;45.442;9.212;2023-01-08T10:51:48;9.32;87.11
70170;DHT22;57543;45.442;9.212;2023-01-08T10:54:52;9.28;87.58
70170;DHT22;57543;45.442;9.212;2023-01-08T10:58:02;9.28;87.77
70170;DHT22;57543;45.442;9.212;2023-01-08T11:01:27;9.39;87.71
70170;DHT22;57543;45.442;9.212;2023-01-08T11:04:33;9.36;87.69
70170;DHT22;57543;45.442;9.212;2023-01-08T11:07:38;9.39;87.50
70170;DHT22;57543;45.442;9.212;2023-01-08T11:10:54;9.39;87.65
70170;DHT22;57543;45.442;9.212;2023-01-08T11:14:00;9.38;87.73
70170;DHT22;57543;45.442;9.212;2023-01-08T11:17:09;9.27;88.29
70170;DHT22;57543;45.442;9.212;2023-01-08T11:20:22;9.30;88.21
70170;DHT22;57543;45.442;9.212;2023-01-08T11:23:26;9.41;88.15
70170;DHT22;57543;45.442;9.212;2023-01-08T11:26:31;9.45;88.03
70170;DHT22;57543;45.442;9.212;2023-01-08T11:35:59;9.21;88.15
70170;DHT22;57543;45.442;9.212;2023-01-08T11:39:07;9.23;88.33
70170;DHT22;57543;45.442;9.212;2023-01-08T11:42:41;9.35;88.39
70170;DHT22;57543;45.442;9.212;2023-01-08T11:46:05;9.42;88.38
70170;DHT22;57543;45.442;9.212;2023-01-08T11:49:48;9.48;88.27
70170;DHT22;57543;45.442;9.212;2023-01-08T11:59:56;9.65;87.95
70170;DHT22;57543;45.442;9.212;2023-01-08T12:03:33;9.70;87.82
70170;DHT22;57543;45.442;9.212;2023-01-08T12:06:50;9.66;87.83
70170;DHT22;57543;45.442;9.212;2023-01-08T12:10:12;9.56;87.25
70170;DHT22;57543;45.442;9.212;2023-01-08T12:20:43;9.34;87.21
70170;DHT22;57543;45.442;9.212;2023-01-08T12:27:26;9.43;87.68
70170;DHT22;57543;45.442;9.212;2023-01-08T12:34:14;9.51;87.48
70170;DHT22;57543;45.442;9.212;2023-01-08T12:41:10;9.21;88.00
70170;DHT22;57543;45.442;9.212;2023-01-08T12:44:21;9.25;88.05
70170;DHT22;57543;45.442;9.212;2023-01-08T12:47:29;9.34;88.14
70170;DHT22;57543;45.442;9.212;2023-01-08T12:54:18;9.32;88.05
70170;DHT22;57543;45.442;9.212;2023-01-08T12:57:41;9.27;87.87
70170;DHT22;57543;45.442;9.212;2023-01-08T13:01:06;9.23;88.27
70170;DHT22;57543;45.442;9.212;2023-01-08T13:04:14;9.17;88.60
70170;DHT22;57543;45.442;9.212;2023-01-08T13:10:38;9.28;88.51
70170;DHT22;57543;45.442;9.212;2023-01-08T13:13:43;9.34;88.37
70170;DHT22;57543;45.442;9.212;2023-01-08T13:17:06;9.31;88.99
70170;DHT22;57543;45.442;9.212;2023-01-08T13:20:21;9.11;89.23
70170;DHT22;57543;45.442;9.212;2023-01-08T13:23:30;9.14;88.85
70170;DHT22;57543;45.442;9.212;2023-01-08T13:26:35;9.14;88.73
70170;DHT22;57543;45.442;9.212;2023-01-08T13:29:41;9.18;88.77
70170;DHT22;57543;45.442;9.212;2023-01-08T13:32:46;9.15;88.44
70170;DHT22;57543;45.442;9.212;2023-01-08T13:35:50;8.83;89.96
70170;DHT22;57543;45.442;9.212;2023-01-08T13:42:24;8.79;90.48
70170;DHT22;57543;45.442;9.212;2023-01-08T13:45:33;8.76;90.46
70170;DHT22;57543;45.442;9.212;2023-01-08T13:48:47;8.86;90.23
70170;DHT22;57543;45.442;9.212;2023-01-08T13:51:52;9.00;90.14
70170;DHT22;57543;45.442;9.212;2023-01-08T13:54:56;9.04;90.10
70170;DHT22;57543;45.442;9.212;2023-01-08T13:58:17;9.04;90.01
70170;DHT22;57543;45.442;9.212;2023-01-08T14:01:23;9.07;89.89
70170;DHT22;57543;45.442;9.212;2023-01-08T14:04:27;9.21;89.68
70170;DHT22;57543;45.442;9.212;2023-01-08T14:07:31;9.21;89.44
70170;DHT22;57543;45.442;9.212;2023-01-08T14:10:35;9.14;89.64
70170;DHT22;57543;45.442;9.212;2023-01-08T14:13:39;9.20;89.66
70170;DHT22;57543;45.442;9.212;2023-01-08T14:16:43;9.23;89.57
70170;DHT22;57543;45.442;9.212;2023-01-08T14:19:47;9.17;89.68
70170;DHT22;57543;45.442;9.212;2023-01-08T14:22:51;9.20;89.72
70170;DHT22;57543;45.442;9.212;2023-01-08T14:25:57;9.25;89.55
70170;DHT22;57543;45.442;9.212;2023-01-08T14:29:15;9.27;89.52
70170;DHT22;57543;45.442;9.212;2023-01-08T14:32:24;9.31;89.28
70170;DHT22;57543;45.442;9.212;2023-01-08T14:35:31;9.25;89.22
70170;DHT22;57543;45.442;9.212;2023-01-08T14:38:35;9.32;89.06
70170;DHT22;57543;45.442;9.212;2023-01-08T14:41:40;9.35;88.98
70170;DHT22;57543;45.442;9.212;2023-01-08T14:45:27;9.35;88.80
70170;DHT22;57543;45.442;9.212;2023-01-08T14:48:38;9.15;88.82
70170;DHT22;57543;45.442;9.212;2023-01-08T14:51:45;9.23;88.67
70170;DHT22;57543;45.442;9.212;2023-01-08T14:54:52;9.15;88.92
70170;DHT22;57543;45.442;9.212;2023-01-08T14:57:56;9.04;89.43
70170;DHT22;57543;45.442;9.212;2023-01-08T15:01:06;9.10;89.38
70170;DHT22;57543;45.442;9.212;2023-01-08T15:04:15;9.07;89.63
70170;DHT22;57543;45.442;9.212;2023-01-08T15:07:24;8.97;89.80
70170;DHT22;57543;45.442;9.212;2023-01-08T15:10:38;9.04;89.97
70170;DHT22;57543;45.442;9.212;2023-01-08T15:13:41;8.97;90.09
70170;DHT22;57543;45.442;9.212;2023-01-08T15:16:45;8.96;90.11
70170;DHT22;57543;45.442;9.212;2023-01-08T15:19:53;8.91;90.24
70170;DHT22;57543;45.442;9.212;2023-01-08T15:22:57;8.89;90.49
70170;DHT22;57543;45.442;9.212;2023-01-08T15:26:02;8.96;90.36
70170;DHT22;57543;45.442;9.212;2023-01-08T15:29:05;8.81;90.56
70170;DHT22;57543;45.442;9.212;2023-01-08T15:32:16;8.84;90.44
70170;DHT22;57543;45.442;9.212;2023-01-08T15:35:21;8.94;90.37
70170;DHT22;57543;45.442;9.212;2023-01-08T15:38:28;8.94;90.30
70170;DHT22;57543;45.442;9.212;2023-01-08T15:41:34;9.06;90.07
70170;DHT22;57543;45.442;9.212;2023-01-08T15:44:56;8.94;90.11
70170;DHT22;57543;45.442;9.212;2023-01-08T15:48:00;8.93;89.98
70170;DHT22;57543;45.442;9.212;2023-01-08T15:51:04;8.97;90.08
70170;DHT22;57543;45.442;9.212;2023-01-08T15:54:10;8.91;90.04
70170;DHT22;57543;45.442;9.212;2023-01-08T15:57:15;8.84;90.20
70170;DHT22;57543;45.442;9.212;2023-01-08T16:00:21;8.81;90.19
70170;DHT22;57543;45.442;9.212;2023-01-08T16:03:25;8.84;90.51
70170;DHT22;57543;45.442;9.212;2023-01-08T16:06:28;8.83;90.67
70170;DHT22;57543;45.442;9.212;2023-01-08T16:09:32;8.94;90.58
70170;DHT22;57543;45.442;9.212;2023-01-08T16:12:35;8.91;90.58
70170;DHT22;57543;45.442;9.212;2023-01-08T16:15:39;8.97;90.60
70170;DHT22;57543;45.442;9.212;2023-01-08T16:18:43;8.99;90.75
70170;DHT22;57543;45.442;9.212;2023-01-08T16:21:50;9.08;90.58
70170;DHT22;57543;45.442;9.212;2023-01-08T16:24:54;8.93;90.48
70170;DHT22;57543;45.442;9.212;2023-01-08T16:28:01;8.97;90.30
70170;DHT22;57543;45.442;9.212;2023-01-08T16:31:06;8.89;90.59
70170;DHT22;57543;45.442;9.212;2023-01-08T16:34:11;8.86;90.76
70170;DHT22;57543;45.442;9.212;2023-01-08T16:37:15;8.75;91.12
70170;DHT22;57543;45.442;9.212;2023-01-08T16:40:19;8.81;90.92
70170;DHT22;57543;45.442;9.212;2023-01-08T16:43:24;8.77;90.80
70170;DHT22;57543;45.442;9.212;2023-01-08T16:46:28;8.89;90.77
70170;DHT22;57543;45.442;9.212;2023-01-08T16:49:32;8.90;90.46
70170;DHT22;57543;45.442;9.212;2023-01-08T16:52:38;8.83;90.85
70170;DHT22;57543;45.442;9.212;2023-01-08T16:55:42;8.93;90.62
70170;DHT22;57543;45.442;9.212;2023-01-08T16:58:49;8.90;90.59
70170;DHT22;57543;45.442;9.212;2023-01-08T17:01:53;8.84;90.58
70170;DHT22;57543;45.442;9.212;2023-01-08T17:04:57;8.75;90.76
70170;DHT22;57543;45.442;9.212;2023-01-08T17:08:03;8.81;90.64
70170;DHT22;57543;45.442;9.212;2023-01-08T17:11:15;8.68;91.07
70170;DHT22;57543;45.442;9.212;2023-01-08T17:14:20;8.76;91.04
70170;DHT22;57543;45.442;9.212;2023-01-08T17:17:27;8.79;91.04
70170;DHT22;57543;45.442;9.212;2023-01-08T17:20:31;8.79;91.16
70170;DHT22;57543;45.442;9.212;2023-01-08T17:23:37;8.90;90.92
70170;DHT22;57543;45.442;9.212;2023-01-08T17:26:41;8.97;90.62
70170;DHT22;57543;45.442;9.212;2023-01-08T17:29:44;8.94;90.45
70170;DHT22;57543;45.442;9.212;2023-01-08T17:32:48;8.80;90.77
70170;DHT22;57543;45.442;9.212;2023-01-08T17:35:52;8.90;90.69
70170;DHT22;57543;45.442;9.212;2023-01-08T17:38:55;8.87;90.78
70170;DHT22;57543;45.442;9.212;2023-01-08T17:41:59;8.91;90.64
70170;DHT22;57543;45.442;9.212;2023-01-08T17:45:21;8.99;90.58
70170;DHT22;57543;45.442;9.212;2023-01-08T17:48:25;9.07;90.44
70170;DHT22;57543;45.442;9.212;2023-01-08T17:51:28;9.11;90.37
70170;DHT22;57543;45.442;9.212;2023-01-08T17:54:34;9.17;90.12
70170;DHT22;57543;45.442;9.212;2023-01-08T17:57:38;9.23;90.20
70170;DHT22;57543;45.442;9.212;2023-01-08T18:00:41;9.24;90.03
70170;DHT22;57543;45.442;9.212;2023-01-08T18:03:45;9.28;89.81
70170;DHT22;57543;45.442;9.212;2023-01-08T18:06:48;9.32;89.64
70170;DHT22;57543;45.442;9.212;2023-01-08T18:09:52;9.31;89.53
70170;DHT22;57543;45.442;9.212;2023-01-08T18:12:56;9.18;89.66
70170;DHT22;57543;45.442;9.212;2023-01-08T18:16:04;9.17;89.67
70170;DHT22;57543;45.442;9.212;2023-01-08T18:19:08;9.21;89.73
70170;DHT22;57543;45.442;9.212;2023-01-08T18:22:12;9.20;89.65
70170;DHT22;57543;45.442;9.212;2023-01-08T18:25:16;9.30;89.68
70170;DHT22;57543;45.442;9.212;2023-01-08T18:28:20;9.28;89.70
70170;DHT22;57543;45.442;9.212;2023-01-08T18:31:24;9.13;89.69
70170;DHT22;57543;45.442;9.212;2023-01-08T18:34:27;9.25;89.70
70170;DHT22;57543;45.442;9.212;2023-01-08T18:37:31;9.25;89.66
70170;DHT22;57543;45.442;9.212;2023-01-08T18:40:35;9.32;89.71
70170;DHT22;57543;45.442;9.212;2023-01-08T18:43:39;9.34;89.64
70170;DHT22;57543;45.442;9.212;2023-01-08T18:46:42;9.23;89.83
70170;DHT22;57543;45.442;9.212;2023-01-08T18:49:46;9.20;89.74
70170;DHT22;57543;45.442;9.212;2023-01-08T18:52:49;9.21;89.93
70170;DHT22;57543;45.442;9.212;2023-01-08T18:55:52;9.30;89.88
70170;DHT22;57543;45.442;9.212;2023-01-08T18:58:57;9.36;89.72
70170;DHT22;57543;45.442;9.212;2023-01-08T19:02:00;9.36;89.68
70170;DHT22;57543;45.442;9.212;2023-01-08T19:05:04;9.41;89.50
70170;DHT22;57543;45.442;9.212;2023-01-08T19:08:08;9.43;89.39
70170;DHT22;57543;45.442;9.212;2023-01-08T19:11:12;9.49;89.33
70170;DHT22;57543;45.442;9.212;2023-01-08T19:14:16;9.48;89.26
70170;DHT22;57543;45.442;9.212;2023-01-08T19:17:19;9.51;89.13
70170;DHT22;57543;45.442;9.212;2023-01-08T19:20:23;9.52;89.08
70170;DHT22;57543;45.442;9.212;2023-01-08T19:23:27;9.53;89.09
70170;DHT22;57543;45.442;9.212;2023-01-08T19:26:30;9.52;89.13
70170;DHT22;57543;45.442;9.212;2023-01-08T19:29:34;9.53;89.07
70170;DHT22;57543;45.442;9.212;2023-01-08T19:32:37;9.55;89.08
70170;DHT22;57543;45.442;9.212;2023-01-08T19:35:41;9.49;89.03
70170;DHT22;57543;45.442;9.212;2023-01-08T19:38:45;9.38;89.15
70170;DHT22;57543;45.442;9.212;2023-01-08T19:41:49;9.43;89.20
70170;DHT22;57543;45.442;9.212;2023-01-08T19:45:11;9.46;89.13
70170;DHT22;57543;45.442;9.212;2023-01-08T19:48:15;9.42;89.26
70170;DHT22;57543;45.442;9.212;2023-01-08T19:51:19;9.41;89.43
70170;DHT22;57543;45.442;9.212;2023-01-08T19:54:22;9.43;89.41
70170;DHT22;57543;45.442;9.212;2023-01-08T19:57:28;9.45;89.31
70170;DHT22;57543;45.442;9.212;2023-01-08T20:00:32;9.48;89.22
70170;DHT22;57543;45.442;9.212;2023-01-08T20:03:40;9.49;89.10
70170;DHT22;57543;45.442;9.212;2023-01-08T20:06:44;9.52;89.12
70170;DHT22;57543;45.442;9.212;2023-01-08T20:09:48;9.53;89.08
70170;DHT22;57543;45.442;9.212;2023-01-08T20:12:51;9.34;89.06
70170;DHT22;57543;45.442;9.212;2023-01-08T20:15:55;9.43;89.06
70170;DHT22;57543;45.442;9.212;2023-01-08T20:19:01;9.46;89.03
70170;DHT22;57543;45.442;9.212;2023-01-08T20:22:07;9.52;88.99
70170;DHT22;57543;45.442;9.212;2023-01-08T20:25:10;9.51;89.07
70170;DHT22;57543;45.442;9.212;2023-01-08T20:28:14;9.49;89.01
70170;DHT22;57543;45.442;9.212;2023-01-08T20:31:19;9.52;88.92
70170;DHT22;57543;45.442;9.212;2023-01-08T20:34:23;9.52;88.98
70170;DHT22;57543;45.442;9.212;2023-01-08T20:37:27;9.52;88.99
70170;DHT22;57543;45.442;9.212;2023-01-08T20:40:37;9.51;89.00
70170;DHT22;57543;45.442;9.212;2023-01-08T20:43:40;9.52;88.91
70170;DHT22;57543;45.442;9.212;2023-01-08T20:46:44;9.53;88.93